Time;durP1;ratioP1;P1;durP2;ratioP2;P2;SDS_P1;SDS_P2;PMS_P1;PMS_P2;Temp;Humidity;BMP_temperature;BMP_pressure;BME280_temperature;BME280_humidity;BME280_pressure;Samples;Min_cycle;Max_cycle;Signal;HPM_P1;HPM_P2
2023/07/12 00:01:04;;;;;;;10.43;9.57;;;23.80;99.90;;;;;;5018350;28;20169;-79
2023/07/12 00:03:30;;;;;;;10.15;9.32;;;23.70;99.90;;;;;;5018783;28;20671;-80
2023/07/12 00:05:56;;;;;;;11.57;10.48;;;23.60;99.90;;;;;;5001417;28;20176;-79
2023/07/12 00:08:27;;;;;;;10.65;9.55;;;23.60;99.90;;;;;;5018282;28;20170;-78
2023/07/12 00:10:55;;;;;;;10.60;9.57;;;23.60;99.90;;;;;;5018748;28;21039;-77
2023/07/12 00:13:23;;;;;;;10.25;9.35;;;23.50;99.90;;;;;;5000198;28;20240;-78
2023/07/12 00:15:49;;;;;;;10.50;9.55;;;23.40;99.90;;;;;;5018015;28;20551;-78
2023/07/12 00:18:17;;;;;;;9.57;8.70;;;23.40;99.90;;;;;;5001755;28;20201;-79
2023/07/12 00:20:44;;;;;;;12.23;9.48;;;23.40;99.90;;;;;;5023384;28;20304;-78
2023/07/12 00:23:12;;;;;;;11.95;9.57;;;23.30;99.90;;;;;;5022543;28;20193;-78
2023/07/12 00:25:38;;;;;;;10.65;9.57;;;23.30;99.90;;;;;;5022568;28;20232;-78
2023/07/12 00:28:32;;;;;;;10.32;8.35;;;23.10;99.90;;;;;;5022767;28;20177;-78
2023/07/12 00:30:59;;;;;;;10.50;9.60;;;23.10;99.90;;;;;;5023640;28;20185;-79
2023/07/12 00:33:26;;;;;;;10.30;9.30;;;23.10;99.90;;;;;;5022431;28;20271;-77
2023/07/12 00:35:53;;;;;;;10.02;9.25;;;23.10;99.90;;;;;;5011971;28;20193;-77
2023/07/12 00:38:23;;;;;;;10.60;9.70;;;23.20;99.90;;;;;;5024478;28;20195;-78
2023/07/12 00:41:19;;;;;;;10.25;8.68;;;23.10;99.90;;;;;;5015883;28;20261;-77
2023/07/12 00:44:28;;;;;;;9.97;9.07;;;23.10;99.90;;;;;;4997588;28;20187;-78
2023/07/12 00:46:57;;;;;;;9.68;8.45;;;23.10;99.90;;;;;;5015676;28;20171;-77
2023/07/12 00:49:24;;;;;;;10.02;9.15;;;23.10;99.90;;;;;;5015409;28;20169;-77
2023/07/12 00:51:53;;;;;;;9.77;8.57;;;23.10;99.90;;;;;;5015230;28;20173;-77
2023/07/12 00:54:23;;;;;;;10.05;8.60;;;23.10;99.90;;;;;;5015316;28;20195;-78
2023/07/12 00:56:48;;;;;;;9.05;8.18;;;23.20;99.90;;;;;;5016167;28;20169;-77
2023/07/12 00:59:22;;;;;;;12.18;8.65;;;23.20;99.90;;;;;;5015780;28;20170;-78
2023/07/12 01:01:52;;;;;;;9.65;8.73;;;23.20;99.90;;;;;;4998474;28;20722;-77
2023/07/12 01:04:42;;;;;;;9.90;8.93;;;23.20;99.90;;;;;;5017820;28;20255;-78
2023/07/12 01:07:09;;;;;;;9.23;8.52;;;23.30;99.90;;;;;;5024804;28;20169;-79
2023/07/12 01:09:35;;;;;;;9.82;8.93;;;23.20;99.90;;;;;;5027011;28;20174;-78
2023/07/12 01:12:01;;;;;;;10.30;9.30;;;23.30;99.90;;;;;;5017888;28;20571;-77
2023/07/12 01:14:27;;;;;;;10.73;9.63;;;23.20;99.90;;;;;;5020904;28;20205;-78
2023/07/12 01:17:06;;;;;;;11.02;10.02;;;23.20;99.90;;;;;;5035162;28;20676;-78
2023/07/12 01:19:32;;;;;;;10.40;9.35;;;23.20;99.90;;;;;;5017431;28;20295;-77
2023/07/12 01:21:58;;;;;;;9.95;8.95;;;23.30;99.90;;;;;;5014779;28;20648;-78
2023/07/12 01:24:26;;;;;;;11.38;10.07;;;23.20;99.90;;;;;;5015126;28;20173;-77
2023/07/12 01:26:57;;;;;;;10.73;9.63;;;23.20;99.90;;;;;;5015283;28;20181;-80
2023/07/12 01:29:24;;;;;;;10.52;9.65;;;23.10;99.90;;;;;;5014939;28;20524;-80
2023/07/12 01:31:50;;;;;;;12.95;10.10;;;23.10;99.90;;;;;;5014037;28;20705;-80
2023/07/12 01:34:17;;;;;;;10.65;9.65;;;23.20;99.90;;;;;;5014740;28;20213;-79
2023/07/12 01:36:44;;;;;;;11.10;10.10;;;23.10;99.90;;;;;;5015071;28;20165;-78
2023/07/12 01:39:10;;;;;;;11.43;10.00;;;23.00;99.90;;;;;;5014774;28;20217;-80
2023/07/12 01:41:36;;;;;;;14.27;9.73;;;23.00;99.90;;;;;;5014440;28;20173;-79
2023/07/12 01:44:02;;;;;;;13.23;10.20;;;23.00;99.90;;;;;;5014660;28;20242;-79
2023/07/12 01:46:29;;;;;;;12.05;10.73;;;23.00;99.90;;;;;;5014657;28;20568;-79
2023/07/12 01:48:54;;;;;;;10.40;9.57;;;23.00;99.90;;;;;;5032689;28;20188;-80
2023/07/12 01:51:21;;;;;;;11.63;10.43;;;23.00;99.90;;;;;;5037188;28;20173;-79
2023/07/12 01:53:47;;;;;;;14.18;10.02;;;23.10;99.90;;;;;;5035888;28;20193;-79
2023/07/12 01:56:15;;;;;;;9.73;8.82;;;23.10;99.90;;;;;;5026997;28;20204;-80
2023/07/12 01:58:40;;;;;;;10.68;9.73;;;23.00;99.90;;;;;;5032224;28;20204;-78
2023/07/12 02:01:06;;;;;;;11.13;9.40;;;23.10;99.90;;;;;;5028991;28;20184;-79
2023/07/12 02:03:32;;;;;;;11.48;10.27;;;23.10;99.90;;;;;;5023389;28;20181;-78
2023/07/12 02:05:58;;;;;;;10.15;9.15;;;23.20;99.90;;;;;;5028534;28;20177;-77
2023/07/12 02:08:25;;;;;;;10.35;9.30;;;23.20;99.90;;;;;;5028575;28;20282;-77
2023/07/12 02:10:51;;;;;;;10.90;10.00;;;23.20;99.90;;;;;;5015967;28;20196;-79
2023/07/12 02:13:19;;;;;;;10.95;9.77;;;23.20;99.90;;;;;;5016874;28;20205;-77
2023/07/12 02:15:45;;;;;;;11.00;9.90;;;23.20;99.90;;;;;;4996981;28;20637;-77
2023/07/12 02:18:12;;;;;;;10.90;9.90;;;23.10;99.90;;;;;;4996894;28;20251;-78
2023/07/12 02:20:39;;;;;;;11.27;10.17;;;23.20;99.90;;;;;;5013549;28;20220;-78
2023/07/12 02:23:05;;;;;;;10.23;9.20;;;23.20;99.90;;;;;;5014103;28;20192;-77
2023/07/12 02:25:30;;;;;;;10.68;9.65;;;23.20;99.90;;;;;;5014143;28;20173;-77
2023/07/12 02:27:56;;;;;;;13.88;11.02;;;23.20;99.90;;;;;;5013549;28;20663;-78
2023/07/12 02:30:27;;;;;;;11.00;9.55;;;23.20;99.90;;;;;;5013489;28;20659;-79
2023/07/12 02:32:54;;;;;;;12.13;9.25;;;23.30;99.90;;;;;;5012880;28;20209;-78
2023/07/12 02:35:22;;;;;;;10.68;9.57;;;23.30;99.90;;;;;;5013512;28;20174;-77
2023/07/12 02:37:48;;;;;;;10.43;9.55;;;23.30;99.90;;;;;;4996045;28;20227;-78
2023/07/12 02:40:14;;;;;;;10.35;9.35;;;23.40;99.90;;;;;;5013445;28;20578;-78
2023/07/12 02:42:40;;;;;;;10.68;9.65;;;23.40;99.90;;;;;;5013257;28;20181;-78
2023/07/12 02:45:07;;;;;;;10.15;9.15;;;23.50;99.90;;;;;;5014794;28;20169;-78
2023/07/12 02:47:34;;;;;;;10.30;9.27;;;23.50;99.90;;;;;;5013434;28;20177;-77
2023/07/12 02:50:00;;;;;;;10.63;9.63;;;23.70;99.90;;;;;;5013151;28;20181;-78
2023/07/12 02:52:25;;;;;;;9.98;9.07;;;23.70;99.90;;;;;;5014536;28;20219;-80
2023/07/12 02:54:51;;;;;;;11.38;10.05;;;23.70;99.90;;;;;;5013829;28;20251;-79
2023/07/12 02:57:18;;;;;;;11.45;10.18;;;23.70;99.90;;;;;;5013722;28;20177;-77
2023/07/12 02:59:43;;;;;;;10.82;9.77;;;23.70;99.90;;;;;;5023720;28;20169;-77
2023/07/12 03:02:11;;;;;;;10.63;9.63;;;23.70;99.90;;;;;;5022551;28;20208;-77
2023/07/12 03:04:37;;;;;;;11.88;10.57;;;23.70;99.90;;;;;;5013353;28;20265;-76
2023/07/12 03:07:03;;;;;;;11.52;10.05;;;23.60;99.90;;;;;;5013340;28;20252;-79
2023/07/12 03:09:29;;;;;;;11.32;10.13;;;23.60;99.90;;;;;;5013568;28;20173;-80
2023/07/12 03:11:55;;;;;;;10.18;9.23;;;23.60;99.90;;;;;;5013195;28;20185;-78
2023/07/12 03:14:22;;;;;;;10.38;9.48;;;23.60;99.90;;;;;;5013014;28;20258;-78
2023/07/12 03:16:47;;;;;;;11.50;10.23;;;23.60;99.90;;;;;;5015596;28;20169;-77
2023/07/12 03:19:14;;;;;;;11.10;9.80;;;23.60;99.90;;;;;;5017582;28;20227;-78
2023/07/12 03:21:40;;;;;;;10.80;9.80;;;23.70;99.90;;;;;;5019316;28;20161;-78
2023/07/12 03:24:08;;;;;;;11.15;10.15;;;23.70;99.90;;;;;;5001666;28;20177;-78
2023/07/12 03:26:34;;;;;;;11.05;10.02;;;23.70;99.90;;;;;;5018942;28;20180;-77
2023/07/12 03:29:00;;;;;;;13.82;9.93;;;23.80;99.90;;;;;;5019859;28;20173;-79
2023/07/12 03:31:27;;;;;;;11.60;10.07;;;23.80;99.90;;;;;;5020768;28;20212;-78
2023/07/12 03:33:53;;;;;;;11.93;10.82;;;23.80;99.90;;;;;;5023025;28;20660;-80
2023/07/12 03:36:20;;;;;;;12.55;11.25;;;23.80;99.90;;;;;;5028277;28;20185;-78
2023/07/12 03:38:46;;;;;;;11.50;10.40;;;23.80;99.90;;;;;;5022399;28;20173;-79
2023/07/12 03:41:17;;;;;;;10.82;9.82;;;23.80;99.90;;;;;;5018185;28;20506;-78
2023/07/12 03:43:42;;;;;;;10.57;9.57;;;23.90;99.90;;;;;;5016579;28;20162;-78
2023/07/12 03:46:08;;;;;;;12.27;10.10;;;23.90;99.90;;;;;;5016525;28;20180;-77
2023/07/12 03:48:34;;;;;;;11.43;10.27;;;23.90;99.90;;;;;;5016789;28;20179;-79
2023/07/12 03:51:00;;;;;;;10.93;9.88;;;24.00;99.90;;;;;;4999658;28;20535;-77
2023/07/12 03:53:27;;;;;;;11.65;10.55;;;23.90;99.90;;;;;;5016498;28;20250;-78
2023/07/12 03:55:52;;;;;;;11.27;10.18;;;24.00;99.90;;;;;;5016548;28;20174;-79
2023/07/12 03:58:22;;;;;;;11.13;10.13;;;24.00;99.90;;;;;;4998883;28;20181;-77
2023/07/12 04:00:50;;;;;;;10.40;9.43;;;23.90;99.90;;;;;;5016280;28;20384;-77
2023/07/12 04:03:17;;;;;;;10.93;9.40;;;23.80;99.90;;;;;;5015957;28;20169;-78
2023/07/12 04:05:43;;;;;;;10.55;9.52;;;23.80;99.90;;;;;;5016472;28;20172;-78
2023/07/12 04:08:12;;;;;;;13.07;10.80;;;23.90;99.90;;;;;;5016109;28;20528;-78
2023/07/12 04:10:38;;;;;;;13.05;10.75;;;23.80;99.90;;;;;;5016380;28;20173;-77
2023/07/12 04:13:04;;;;;;;11.30;10.20;;;23.50;99.90;;;;;;5016124;28;20205;-78
2023/07/12 04:15:30;;;;;;;13.60;10.07;;;23.50;99.90;;;;;;5017221;28;20165;-78
2023/07/12 04:17:56;;;;;;;11.77;10.48;;;23.40;99.90;;;;;;5016273;28;20188;-77
2023/07/12 04:20:22;;;;;;;13.85;11.20;;;23.30;99.90;;;;;;5016210;28;20260;-78
2023/07/12 04:22:51;;;;;;;10.80;9.82;;;23.10;99.90;;;;;;5016116;28;20200;-78
2023/07/12 04:25:18;;;;;;;10.68;9.68;;;23.10;99.90;;;;;;5015952;28;20187;-77
2023/07/12 04:27:44;;;;;;;10.43;9.43;;;23.20;99.90;;;;;;5016139;28;20198;-78
2023/07/12 04:30:15;;;;;;;9.07;8.18;;;23.30;99.90;;;;;;5015933;28;20179;-78
2023/07/12 04:32:41;;;;;;;10.25;9.20;;;23.30;99.90;;;;;;5015575;28;20231;-77
2023/07/12 04:35:08;;;;;;;9.55;8.60;;;23.20;99.90;;;;;;5015258;28;20645;-78
2023/07/12 04:37:34;;;;;;;9.43;8.63;;;23.20;99.90;;;;;;5015749;28;20185;-79
2023/07/12 04:40:00;;;;;;;10.27;9.25;;;23.10;99.90;;;;;;4998307;28;20183;-78
2023/07/12 04:42:26;;;;;;;8.27;7.57;;;23.10;99.90;;;;;;5015955;28;20169;-77
2023/07/12 04:44:52;;;;;;;9.02;8.23;;;23.00;99.90;;;;;;4998486;28;20548;-78
2023/07/12 04:47:18;;;;;;;8.90;8.10;;;23.00;99.90;;;;;;5009233;28;20177;-78
2023/07/12 04:49:44;;;;;;;9.02;8.15;;;23.00;99.90;;;;;;5023996;28;20580;-78
2023/07/12 04:52:13;;;;;;;9.13;8.25;;;22.90;99.90;;;;;;5016782;28;20181;-77
2023/07/12 04:54:41;;;;;;;9.30;8.30;;;22.90;99.90;;;;;;5020587;28;20281;-78
2023/07/12 04:57:07;;;;;;;10.10;9.07;;;22.80;99.90;;;;;;5015722;28;20231;-79
2023/07/12 04:59:34;;;;;;;10.25;9.20;;;22.80;99.90;;;;;;4999371;28;20534;-78
2023/07/12 05:02:00;;;;;;;9.90;9.00;;;22.80;99.90;;;;;;5016422;28;20179;-79
2023/07/12 05:04:25;;;;;;;9.60;8.70;;;22.70;99.90;;;;;;5015450;28;20169;-80
2023/07/12 05:06:52;;;;;;;10.23;9.37;;;22.70;99.90;;;;;;5015653;28;20181;-77
2023/07/12 05:09:18;;;;;;;9.57;8.70;;;22.70;99.90;;;;;;5015332;28;20261;-77
2023/07/12 05:11:44;;;;;;;9.63;8.73;;;22.70;99.90;;;;;;5015065;28;20177;-77
2023/07/12 05:14:10;;;;;;;15.00;8.68;;;22.70;99.90;;;;;;5014671;28;20606;-78
2023/07/12 05:16:36;;;;;;;12.75;8.95;;;22.70;99.90;;;;;;5014807;28;20178;-79
2023/07/12 05:19:03;;;;;;;11.95;9.23;;;22.80;99.90;;;;;;4997505;28;20185;-78
2023/07/12 05:21:29;;;;;;;9.93;9.02;;;22.60;99.90;;;;;;5015692;28;20169;-80
2023/07/12 05:23:55;;;;;;;10.05;9.15;;;22.90;99.90;;;;;;5015170;28;20188;-77
2023/07/12 05:26:21;;;;;;;10.48;9.45;;;22.90;99.90;;;;;;5014804;28;20727;-78
2023/07/12 05:28:48;;;;;;;10.13;9.20;;;22.90;99.90;;;;;;5014873;28;20620;-77
2023/07/12 05:31:14;;;;;;;10.68;9.70;;;22.90;99.90;;;;;;5014696;28;20169;-79
2023/07/12 05:33:45;;;;;;;10.00;9.00;;;23.00;99.90;;;;;;5015125;28;20209;-78
2023/07/12 05:36:12;;;;;;;10.10;8.45;;;23.10;99.90;;;;;;5002164;28;20185;-79
2023/07/12 05:38:37;;;;;;;11.40;8.63;;;23.20;99.90;;;;;;5030859;28;20196;-78
2023/07/12 05:41:04;;;;;;;10.20;8.98;;;23.30;99.90;;;;;;5025248;28;20224;-79
2023/07/12 05:43:29;;;;;;;10.52;8.57;;;23.30;99.90;;;;;;5016899;28;20703;-80
2023/07/12 05:45:58;;;;;;;10.85;8.85;;;23.20;99.90;;;;;;5016820;28;20173;-80
2023/07/12 05:48:26;;;;;;;12.07;9.20;;;23.30;99.90;;;;;;5017995;28;20177;-78
2023/07/12 05:50:56;;;;;;;10.23;8.93;;;23.30;99.90;;;;;;5006024;28;20240;-79
2023/07/12 05:53:21;;;;;;;10.27;9.05;;;23.30;99.90;;;;;;5034110;28;20208;-80
2023/07/12 05:55:53;;;;;;;10.88;8.95;;;23.40;99.90;;;;;;5021036;28;20184;-79
2023/07/12 05:58:18;;;;;;;10.52;9.45;;;23.40;99.90;;;;;;5016095;28;20173;-78
2023/07/12 06:00:44;;;;;;;9.32;8.52;;;23.50;99.90;;;;;;5015629;28;20521;-78
2023/07/12 06:03:10;;;;;;;9.63;8.48;;;23.50;99.90;;;;;;5014848;28;20182;-77
2023/07/12 06:05:40;;;;;;;9.32;8.38;;;23.50;99.90;;;;;;5016303;28;20184;-78
2023/07/12 06:08:05;;;;;;;9.65;8.65;;;23.40;99.90;;;;;;5016322;28;20169;-77
2023/07/12 06:10:31;;;;;;;9.68;8.10;;;23.40;99.90;;;;;;5016782;28;20232;-77
2023/07/12 06:12:57;;;;;;;12.85;8.70;;;23.40;99.90;;;;;;5015455;28;20208;-77
2023/07/12 06:15:23;;;;;;;9.18;8.27;;;23.40;99.90;;;;;;5014421;28;20187;-78
2023/07/12 06:17:48;;;;;;;8.95;7.32;;;23.40;99.90;;;;;;5015105;28;20188;-77
2023/07/12 06:20:14;;;;;;;8.57;7.68;;;23.30;99.90;;;;;;5014842;28;20268;-78
2023/07/12 06:22:40;;;;;;;8.18;7.40;;;23.40;99.90;;;;;;5016029;28;20173;-78
2023/07/12 06:25:06;;;;;;;8.20;7.55;;;23.40;99.90;;;;;;5017933;28;20169;-80
2023/07/12 06:27:32;;;;;;;8.90;8.05;;;23.50;99.90;;;;;;5026745;28;20173;-77
2023/07/12 06:29:57;;;;;;;11.77;7.85;;;23.60;99.90;;;;;;5017190;28;20177;-79
2023/07/12 06:32:23;;;;;;;7.72;7.03;;;23.60;99.90;;;;;;5015032;28;20185;-79
2023/07/12 06:34:49;;;;;;;9.98;7.88;;;23.60;99.90;;;;;;4998008;28;20280;-78
2023/07/12 06:37:14;;;;;;;8.35;7.45;;;23.60;99.90;;;;;;5016240;28;20227;-78
2023/07/12 06:39:40;;;;;;;9.23;8.30;;;23.70;99.90;;;;;;5031939;28;20173;-78
2023/07/12 06:42:07;;;;;;;9.73;8.20;;;23.60;99.90;;;;;;5016254;28;20547;-78
2023/07/12 06:44:33;;;;;;;9.68;7.60;;;23.70;99.90;;;;;;5017701;28;20181;-78
2023/07/12 06:46:59;;;;;;;9.57;7.80;;;23.90;99.90;;;;;;5019965;28;20173;-78
2023/07/12 06:49:24;;;;;;;9.55;8.40;;;24.00;99.90;;;;;;5015351;28;20315;-78
2023/07/12 06:51:50;;;;;;;8.60;7.90;;;24.20;99.90;;;;;;5016325;28;20184;-79
2023/07/12 06:54:17;;;;;;;10.70;7.90;;;24.20;99.90;;;;;;5018008;28;20528;-78
2023/07/12 06:56:43;;;;;;;9.32;8.32;;;24.30;99.90;;;;;;5017870;28;20652;-78
2023/07/12 06:59:10;;;;;;;7.15;6.45;;;24.50;99.90;;;;;;5018113;28;20181;-77
2023/07/12 07:01:37;;;;;;;6.72;6.13;;;24.60;99.90;;;;;;5023506;28;20247;-79
2023/07/12 07:04:03;;;;;;;6.75;6.15;;;24.70;99.90;;;;;;5025889;28;20629;-80
2023/07/12 07:06:30;;;;;;;9.65;7.07;;;24.70;99.90;;;;;;5017449;28;20219;-78
2023/07/12 07:08:55;;;;;;;7.57;6.30;;;24.90;99.90;;;;;;5018104;28;20204;-78
2023/07/12 07:11:21;;;;;;;7.15;6.05;;;24.90;99.90;;;;;;5018142;28;20165;-77
2023/07/12 07:13:50;;;;;;;5.40;5.00;;;25.00;99.90;;;;;;5017133;28;20220;-77
2023/07/12 07:16:16;;;;;;;4.70;4.35;;;25.10;99.90;;;;;;5016997;28;20288;-77
2023/07/12 07:18:42;;;;;;;5.15;4.75;;;25.00;99.90;;;;;;5017154;28;20208;-78
2023/07/12 07:21:08;;;;;;;4.97;4.45;;;25.20;99.90;;;;;;4999462;28;20217;-78
2023/07/12 07:23:34;;;;;;;5.47;5.05;;;25.20;99.90;;;;;;5016887;28;20174;-77
2023/07/12 07:26:06;;;;;;;5.10;4.60;;;25.20;99.90;;;;;;4999920;28;20268;-78
2023/07/12 07:28:32;;;;;;;6.47;5.20;;;25.20;99.90;;;;;;5019913;28;20257;-78
2023/07/12 07:31:00;;;;;;;5.50;4.72;;;25.10;99.90;;;;;;5024429;28;20184;-78
2023/07/12 07:33:26;;;;;;;4.90;4.60;;;25.20;99.90;;;;;;5017660;28;20295;-77
2023/07/12 07:35:52;;;;;;;6.07;4.28;;;25.20;99.90;;;;;;5016968;28;20173;-79
2023/07/12 07:38:18;;;;;;;7.13;4.38;;;25.20;99.90;;;;;;5016772;28;20180;-80
2023/07/12 07:40:44;;;;;;;6.68;5.25;;;25.10;99.90;;;;;;4998955;28;20530;-79
2023/07/12 07:43:14;;;;;;;5.35;4.85;;;25.10;99.90;;;;;;5016620;28;20173;-76
2023/07/12 07:45:41;;;;;;;5.47;5.00;;;25.20;99.90;;;;;;5016681;28;20172;-81
2023/07/12 07:48:07;;;;;;;5.53;4.97;;;25.30;99.90;;;;;;5016550;28;20620;-77
2023/07/12 07:50:32;;;;;;;5.63;5.13;;;25.30;99.90;;;;;;5017607;28;20176;-78
2023/07/12 07:52:58;;;;;;;6.10;5.50;;;25.30;99.90;;;;;;5021318;28;20288;-78
2023/07/12 07:55:26;;;;;;;5.40;4.90;;;25.40;99.90;;;;;;5017555;28;20202;-79
2023/07/12 07:57:52;;;;;;;5.47;4.88;;;25.50;99.90;;;;;;5017400;28;20173;-78
2023/07/12 08:00:18;;;;;;;5.22;4.82;;;25.60;99.90;;;;;;5017794;28;20197;-80
2023/07/12 08:02:44;;;;;;;4.80;4.40;;;25.80;99.90;;;;;;5000031;28;20181;-78
2023/07/12 08:05:11;;;;;;;4.93;4.40;;;25.90;99.90;;;;;;5018561;28;20177;-77
2023/07/12 08:07:43;;;;;;;4.60;4.22;;;26.10;99.90;;;;;;5024431;28;20158;-79
2023/07/12 08:10:12;;;;;;;5.05;4.38;;;26.20;99.90;;;;;;5035080;28;20181;-79
2023/07/12 08:12:38;;;;;;;4.82;4.43;;;26.40;99.90;;;;;;5019371;28;20216;-78
2023/07/12 08:15:04;;;;;;;5.50;4.30;;;26.50;99.90;;;;;;5016384;28;20174;-78
2023/07/12 08:17:30;;;;;;;7.57;4.97;;;26.60;99.90;;;;;;5003076;28;20177;-80
2023/07/12 08:19:56;;;;;;;5.15;4.75;;;26.70;99.90;;;;;;5027715;28;20664;-78
2023/07/12 08:22:22;;;;;;;5.13;4.72;;;26.80;99.90;;;;;;5018032;28;20181;-78
2023/07/12 08:24:48;;;;;;;4.60;4.30;;;26.90;99.90;;;;;;5015933;28;20214;-78
2023/07/12 08:27:16;;;;;;;5.00;4.60;;;26.90;99.90;;;;;;5015561;28;20175;-78
2023/07/12 08:29:42;;;;;;;5.10;4.70;;;27.00;99.90;;;;;;4998084;28;20181;-78
2023/07/12 08:32:09;;;;;;;5.78;4.57;;;26.80;99.90;;;;;;5015905;28;20200;-79
2023/07/12 08:34:35;;;;;;;4.85;4.55;;;26.90;99.90;;;;;;5015529;28;20671;-78
2023/07/12 08:37:01;;;;;;;4.35;4.00;;;27.00;99.90;;;;;;5017769;28;20192;-78
2023/07/12 08:39:28;;;;;;;6.05;4.30;;;27.10;99.90;;;;;;5003784;28;20188;-78
2023/07/12 08:41:54;;;;;;;4.35;4.00;;;27.30;99.90;;;;;;5027979;28;20177;-78
2023/07/12 08:44:20;;;;;;;4.57;4.25;;;27.40;99.90;;;;;;5018729;28;20201;-79
2023/07/12 08:46:56;;;;;;;5.13;4.63;;;27.50;99.90;;;;;;5016080;28;20454;-78
2023/07/12 08:49:23;;;;;;;5.13;4.47;;;27.60;99.90;;;;;;5015761;28;20611;-77
2023/07/12 08:51:50;;;;;;;5.30;4.90;;;27.70;99.90;;;;;;5015417;28;20293;-77
2023/07/12 08:54:33;;;;;;;5.32;4.30;;;27.80;99.90;;;;;;5015251;28;20205;-77
2023/07/12 08:57:21;;;;;;;4.00;3.63;;;27.90;99.90;;;;;;5015432;28;20658;-80
2023/07/12 09:00:05;;;;;;;4.43;4.03;;;28.10;99.90;;;;;;5015049;28;20636;-78
2023/07/12 09:02:31;;;;;;;3.88;3.60;;;28.20;99.90;;;;;;4997837;28;20200;-79
2023/07/12 09:04:59;;;;;;;4.10;3.80;;;28.40;99.90;;;;;;4997581;28;20540;-76
2023/07/12 09:07:31;;;;;;;3.92;3.63;;;28.50;99.90;;;;;;5014769;28;20553;-79
2023/07/12 09:09:59;;;;;;;3.92;3.63;;;28.60;99.90;;;;;;5014937;28;20177;-77
2023/07/12 09:12:29;;;;;;;6.25;4.00;;;28.70;99.90;;;;;;5014685;28;20165;-76
2023/07/12 09:15:04;;;;;;;3.70;3.50;;;28.70;99.90;;;;;;5014793;28;20161;-77
2023/07/12 09:17:43;;;;;;;3.70;3.50;;;28.50;99.90;;;;;;4997547;28;20683;-80
2023/07/12 09:20:39;;;;;;;3.10;2.85;;;28.70;99.80;;;;;;5016347;28;20243;-78
2023/07/12 09:23:09;;;;;;;4.20;3.22;;;28.80;99.30;;;;;;4938546;29;20214;-78
2023/07/12 09:25:38;;;;;;;2.80;2.70;;;28.90;98.80;;;;;;4936488;29;20243;-77
2023/07/12 09:28:06;;;;;;;2.67;2.50;;;29.00;98.50;;;;;;4935396;29;20560;-77
2023/07/12 09:30:34;;;;;;;3.30;3.00;;;29.00;98.20;;;;;;4935152;29;20180;-78
2023/07/12 09:33:03;;;;;;;3.35;3.05;;;29.20;98.40;;;;;;4935117;29;20231;-78
2023/07/12 09:35:37;;;;;;;3.20;3.00;;;29.30;97.70;;;;;;4937496;29;20207;-79
2023/07/12 09:38:08;;;;;;;3.28;3.08;;;29.50;97.70;;;;;;4940232;29;20198;-79
2023/07/12 09:40:53;;;;;;;3.72;3.28;;;29.60;98.60;;;;;;4936836;29;20187;-78
2023/07/12 09:43:25;;;;;;;2.90;2.70;;;29.40;98.00;;;;;;4948452;29;20176;-77
2023/07/12 09:46:09;;;;;;;3.10;2.90;;;29.30;98.00;;;;;;4954007;29;20184;-82
2023/07/12 09:48:59;;;;;;;3.60;3.30;;;29.50;98.30;;;;;;4937838;29;20152;-79
2023/07/12 09:51:33;;;;;;;3.58;3.38;;;29.40;98.60;;;;;;4953657;29;20176;-79
2023/07/12 09:54:32;;;;;;;4.65;4.10;;;29.60;99.60;;;;;;4949869;29;20222;-79
2023/07/12 09:57:15;;;;;;;4.80;4.50;;;29.80;99.90;;;;;;4952591;29;20187;-78
2023/07/12 09:59:59;;;;;;;5.72;4.00;;;30.00;99.90;;;;;;4997944;28;20191;-77
2023/07/12 10:02:28;;;;;;;4.60;4.20;;;30.30;99.90;;;;;;5023341;28;20497;-78
2023/07/12 10:05:02;;;;;;;4.68;3.83;;;30.50;99.90;;;;;;5028003;28;20223;-77
2023/07/12 10:07:42;;;;;;;4.30;3.90;;;29.90;99.90;;;;;;5007560;28;20201;-79
2023/07/12 10:10:31;;;;;;;4.13;3.90;;;30.80;99.90;;;;;;5028886;28;20165;-77
2023/07/12 10:13:37;;;;;;;5.72;4.75;;;30.90;99.90;;;;;;5022015;28;20212;-78
2023/07/12 10:16:10;;;;;;;5.63;5.13;;;30.90;99.90;;;;;;4995330;28;20264;-78
2023/07/12 10:18:38;;;;;;;4.97;4.57;;;30.80;99.90;;;;;;5015701;28;20157;-78
2023/07/12 10:21:06;;;;;;;4.63;4.30;;;30.80;99.90;;;;;;5015232;28;20213;-77
2023/07/12 10:23:41;;;;;;;4.78;4.38;;;30.80;99.90;;;;;;5015235;28;20177;-78
2023/07/12 10:26:10;;;;;;;6.05;4.93;;;30.80;99.90;;;;;;5018165;28;20210;-78
2023/07/12 10:28:48;;;;;;;4.82;4.53;;;30.60;99.90;;;;;;5032441;28;20220;-80
2023/07/12 10:31:28;;;;;;;5.43;4.70;;;30.50;99.90;;;;;;5026030;28;20173;-78
2023/07/12 10:34:05;;;;;;;4.95;4.45;;;30.70;99.90;;;;;;4997377;28;20259;-77
2023/07/12 10:36:32;;;;;;;4.70;4.30;;;30.80;99.90;;;;;;5013895;28;20161;-78
2023/07/12 10:38:58;;;;;;;5.70;5.18;;;31.00;99.90;;;;;;5013606;28;20284;-77
2023/07/12 10:41:34;;;;;;;4.82;4.50;;;31.10;99.90;;;;;;5013486;28;20208;-79
2023/07/12 10:44:13;;;;;;;3.90;3.70;;;31.20;99.90;;;;;;5013475;28;20235;-78
2023/07/12 10:46:42;;;;;;;4.28;3.97;;;31.40;99.30;;;;;;5013922;28;20680;-78
2023/07/12 10:49:23;;;;;;;3.55;3.35;;;31.50;98.10;;;;;;5013369;28;20659;-76
2023/07/12 10:52:16;;;;;;;3.05;2.85;;;31.40;96.60;;;;;;4995675;28;20181;-77
2023/07/12 10:55:06;;;;;;;3.30;2.60;;;31.30;94.40;;;;;;5013375;28;20220;-78
2023/07/12 10:57:48;;;;;;;3.00;2.47;;;31.10;93.50;;;;;;5013632;28;20506;-77
2023/07/12 11:00:25;;;;;;;2.88;2.22;;;31.10;92.30;;;;;;5013288;28;20520;-79
2023/07/12 11:03:33;;;;;;;2.60;2.40;;;31.00;91.00;;;;;;5013396;28;20157;-79
2023/07/12 11:06:21;;;;;;;3.47;2.15;;;30.90;91.10;;;;;;4975241;28;20189;-78
2023/07/12 11:08:59;;;;;;;2.35;2.17;;;31.00;91.00;;;;;;5013552;28;20189;-78
2023/07/12 11:11:42;;;;;;;2.42;2.33;;;30.80;90.70;;;;;;5015327;28;20169;-79
2023/07/12 11:14:34;;;;;;;3.40;3.20;;;30.70;91.50;;;;;;5015426;28;20205;-80
2023/07/12 11:17:13;;;;;;;2.42;2.33;;;30.60;91.80;;;;;;4995951;28;20671;-81
2023/07/12 11:19:39;;;;;;;2.63;2.40;;;30.60;91.70;;;;;;5013145;28;20304;-76
2023/07/12 11:22:20;;;;;;;2.70;2.50;;;30.60;91.60;;;;;;5013109;28;20582;-77
2023/07/12 11:25:06;;;;;;;4.10;2.60;;;30.50;92.30;;;;;;5022948;28;20173;-78
2023/07/12 11:27:40;;;;;;;3.10;2.90;;;30.50;92.40;;;;;;5017659;28;20165;-77
2023/07/12 11:30:26;;;;;;;3.83;2.60;;;30.50;92.30;;;;;;5013535;28;20645;-80
2023/07/12 11:32:58;;;;;;;2.50;2.30;;;30.50;92.60;;;;;;4995931;28;20201;-78
2023/07/12 11:35:42;;;;;;;2.55;2.38;;;30.30;92.60;;;;;;5015173;28;20169;-80
2023/07/12 11:38:28;;;;;;;3.17;2.38;;;30.40;92.30;;;;;;5011021;28;20179;-77
2023/07/12 11:40:56;;;;;;;3.05;2.60;;;30.60;92.50;;;;;;5000634;28;20169;-78
2023/07/12 11:43:28;;;;;;;2.58;2.30;;;30.60;92.80;;;;;;5016223;28;20193;-78
2023/07/12 11:45:56;;;;;;;2.70;2.42;;;30.80;92.20;;;;;;5016800;28;20176;-77
2023/07/12 11:48:24;;;;;;;2.45;2.33;;;30.90;92.10;;;;;;5016407;28;20629;-78
2023/07/12 11:50:52;;;;;;;2.90;2.58;;;30.90;92.60;;;;;;5016057;28;20653;-77
2023/07/12 11:53:18;;;;;;;4.07;2.60;;;30.80;91.80;;;;;;5016390;28;20232;-78
2023/07/12 11:55:47;;;;;;;2.70;2.28;;;30.90;92.30;;;;;;5016519;28;20165;-79
2023/07/12 11:58:20;;;;;;;2.60;2.50;;;30.90;91.90;;;;;;5022245;28;20180;-78
2023/07/12 12:00:48;;;;;;;3.75;2.70;;;30.80;92.10;;;;;;5034834;28;20173;-78
2023/07/12 12:03:15;;;;;;;2.90;2.70;;;30.60;92.10;;;;;;5017276;28;20181;-77
2023/07/12 12:05:43;;;;;;;4.28;2.60;;;30.60;92.20;;;;;;5016072;28;20272;-77
2023/07/12 12:08:18;;;;;;;3.08;2.78;;;30.50;92.50;;;;;;5016355;28;20216;-77
2023/07/12 12:10:47;;;;;;;3.00;2.70;;;30.50;93.10;;;;;;5016132;28;20165;-78
2023/07/12 12:13:22;;;;;;;2.90;2.70;;;30.50;92.80;;;;;;5015343;28;20292;-79
2023/07/12 12:15:49;;;;;;;3.17;2.88;;;30.30;92.70;;;;;;5015860;28;20176;-78
2023/07/12 12:18:19;;;;;;;4.43;3.10;;;30.00;92.70;;;;;;5015875;28;20632;-78
2023/07/12 12:20:55;;;;;;;3.95;2.83;;;30.00;93.20;;;;;;5016810;28;20224;-76
2023/07/12 12:23:39;;;;;;;3.38;3.03;;;30.00;94.00;;;;;;5024745;28;20511;-77
2023/07/12 12:26:19;;;;;;;2.75;2.55;;;30.30;93.20;;;;;;5016305;28;20244;-78
2023/07/12 12:28:51;;;;;;;3.30;3.10;;;30.60;93.20;;;;;;5016246;28;20565;-79
2023/07/12 12:31:20;;;;;;;3.58;2.67;;;30.80;92.70;;;;;;5016239;28;20203;-79
2023/07/12 12:33:50;;;;;;;2.95;2.70;;;30.60;91.90;;;;;;5015656;28;20328;-79
2023/07/12 12:36:22;;;;;;;3.17;2.90;;;30.40;91.50;;;;;;5015835;28;20162;-80
2023/07/12 12:38:57;;;;;;;2.85;2.50;;;30.40;91.70;;;;;;5015910;28;20215;-79
2023/07/12 12:41:24;;;;;;;2.58;2.38;;;30.30;91.60;;;;;;5015760;28;20149;-78
2023/07/12 12:44:08;;;;;;;2.38;2.20;;;30.30;91.60;;;;;;5015892;28;20696;-78
2023/07/12 12:46:33;;;;;;;4.25;2.53;;;30.40;92.00;;;;;;5034830;28;20173;-78
2023/07/12 12:48:59;;;;;;;3.80;2.20;;;30.20;92.80;;;;;;5015200;28;20235;-78
2023/07/12 12:51:25;;;;;;;2.30;2.10;;;30.00;92.50;;;;;;5016243;28;20180;-78
2023/07/12 12:53:51;;;;;;;2.55;2.35;;;29.70;91.90;;;;;;5015573;28;20213;-78